Main page
METAR-TAF:

METAR-TAF

Airports :

Buffalo Municipal Airport

Buffalo, Minnesota, United States

latitude: 45-09-32N, longitude: 093-50-35W, elevation: 968 ft

Current weather observation

The report was made 16 minutes ago, at 08:35 UTC
Wind 6 mph from the North/Northwest
Temperature 25°F
Humidity 86%
Pressure 29.94 in. Hg
Visibility: 10 miles
Broken clouds at a height of 2900 ft
Broken clouds at a height of 4500 ft

METAR: KCFE 260835Z AUTO 33005KT 10SM BKN029 BKN045 M04/M06 A2994 RMK AO2

Time: 03:51 (08:51 UTC)


TAF: missing

Weather observations and forecasts of more than 4000 airports (METAR and TAF reports).

The available stations are represented by yellow and red dots on the map.

Hover mouse over dot to see the name of the station.

Then click to see weather observations and forecasts.

To change the map : click on the green buttons with a black cross to zoom in, on the green button with a dash to zoom out, or on the green arrows for adjacent maps.


METAR-TAF: